sensor_id;sensor_type;location;lat;lon;timestamp;pressure;altitude;pressure_sealevel;temperature;humidity
21730;BME280;11027;51.030;13.812;2023-02-02T00:01:08;99900.44;;;4.17;77.42
21730;BME280;11027;51.030;13.812;2023-02-02T00:03:33;99900.44;;;4.17;77.16
21730;BME280;11027;51.030;13.812;2023-02-02T00:05:59;99893.34;;;4.16;77.24
21730;BME280;11027;51.030;13.812;2023-02-02T00:08:24;99894.19;;;4.17;77.41
21730;BME280;11027;51.030;13.812;2023-02-02T00:10:50;99903.44;;;4.14;77.39
21730;BME280;11027;51.030;13.812;2023-02-02T00:13:15;99901.72;;;4.13;77.45
21730;BME280;11027;51.030;13.812;2023-02-02T00:15:40;99891.94;;;4.12;77.61
21730;BME280;11027;51.030;13.812;2023-02-02T00:18:06;99896.78;;;4.09;77.38
21730;BME280;11027;51.030;13.812;2023-02-02T00:20:32;99899.91;;;4.04;77.63
21730;BME280;11027;51.030;13.812;2023-02-02T00:23:00;99891.97;;;4.03;77.56
21730;BME280;11027;51.030;13.812;2023-02-02T00:25:26;99886.72;;;4.01;77.75
21730;BME280;11027;51.030;13.812;2023-02-02T00:27:51;99885.56;;;4.04;77.37
21730;BME280;11027;51.030;13.812;2023-02-02T00:30:17;99882.03;;;4.03;77.08
21730;BME280;11027;51.030;13.812;2023-02-02T00:32:42;99886.13;;;4.07;76.96
21730;BME280;11027;51.030;13.812;2023-02-02T00:35:08;99885.97;;;4.09;76.71
21730;BME280;11027;51.030;13.812;2023-02-02T00:37:34;99890.22;;;4.11;76.59
21730;BME280;11027;51.030;13.812;2023-02-02T00:39:59;99890.22;;;4.11;76.15
21730;BME280;11027;51.030;13.812;2023-02-02T00:42:24;99888.53;;;4.10;76.16
21730;BME280;11027;51.030;13.812;2023-02-02T00:44:49;99884.00;;;4.11;76.12
21730;BME280;11027;51.030;13.812;2023-02-02T00:47:33;99892.09;;;4.11;75.95
21730;BME280;11027;51.030;13.812;2023-02-02T00:49:59;99877.75;;;4.10;75.79
21730;BME280;11027;51.030;13.812;2023-02-02T00:52:24;99876.75;;;4.11;75.67
21730;BME280;11027;51.030;13.812;2023-02-02T00:54:49;99875.06;;;4.10;75.62
21730;BME280;11027;51.030;13.812;2023-02-02T00:57:15;99889.38;;;4.11;75.42
21730;BME280;11027;51.030;13.812;2023-02-02T00:59:40;99886.81;;;4.09;75.31
21730;BME280;11027;51.030;13.812;2023-02-02T01:02:06;99892.22;;;4.09;75.39
21730;BME280;11027;51.030;13.812;2023-02-02T01:04:31;99886.81;;;4.09;75.15
21730;BME280;11027;51.030;13.812;2023-02-02T01:06:56;99873.66;;;4.06;74.98
21730;BME280;11027;51.030;13.812;2023-02-02T01:09:22;99885.16;;;4.08;74.92
21730;BME280;11027;51.030;13.812;2023-02-02T01:11:47;99881.16;;;4.12;74.88
21730;BME280;11027;51.030;13.812;2023-02-02T01:14:12;99883.16;;;4.10;74.77
21730;BME280;11027;51.030;13.812;2023-02-02T01:16:38;99896.19;;;4.05;74.58
21730;BME280;11027;51.030;13.812;2023-02-02T01:19:03;99881.75;;;4.06;74.59
21730;BME280;11027;51.030;13.812;2023-02-02T01:21:28;99885.97;;;4.09;74.56
21730;BME280;11027;51.030;13.812;2023-02-02T01:23:53;99900.03;;;4.12;74.68
21730;BME280;11027;51.030;13.812;2023-02-02T01:26:19;99883.69;;;4.14;74.72
21730;BME280;11027;51.030;13.812;2023-02-02T01:28:44;99882.84;;;4.13;74.62
21730;BME280;11027;51.030;13.812;2023-02-02T01:31:15;99885.53;;;4.13;74.31
21730;BME280;11027;51.030;13.812;2023-02-02T01:33:41;99896.31;;;4.13;74.14
21730;BME280;11027;51.030;13.812;2023-02-02T01:36:10;99887.25;;;4.14;74.16
21730;BME280;11027;51.030;13.812;2023-02-02T01:38:36;99879.16;;;4.14;73.93
21730;BME280;11027;51.030;13.812;2023-02-02T01:41:01;99871.47;;;4.19;73.94
21730;BME280;11027;51.030;13.812;2023-02-02T01:46:09;99876.88;;;4.19;73.39
21730;BME280;11027;51.030;13.812;2023-02-02T01:48:35;99876.28;;;4.26;73.47
21730;BME280;11027;51.030;13.812;2023-02-02T01:51:05;99892.44;;;4.26;73.05
21730;BME280;11027;51.030;13.812;2023-02-02T01:53:32;99870.88;;;4.26;73.09
21730;BME280;11027;51.030;13.812;2023-02-02T01:55:58;99875.69;;;4.32;73.05
21730;BME280;11027;51.030;13.812;2023-02-02T01:58:30;99870.59;;;4.29;73.17
21730;BME280;11027;51.030;13.812;2023-02-02T02:00:58;99877.28;;;4.25;72.95
21730;BME280;11027;51.030;13.812;2023-02-02T02:03:25;99864.50;;;4.27;72.92
21730;BME280;11027;51.030;13.812;2023-02-02T02:06:08;99858.09;;;4.28;73.02
21730;BME280;11027;51.030;13.812;2023-02-02T02:08:41;99865.91;;;4.31;73.05
21730;BME280;11027;51.030;13.812;2023-02-02T02:11:08;99865.06;;;4.30;72.97
21730;BME280;11027;51.030;13.812;2023-02-02T02:13:35;99871.00;;;4.34;73.11
21730;BME280;11027;51.030;13.812;2023-02-02T02:16:31;99873.69;;;4.34;72.85
21730;BME280;11027;51.030;13.812;2023-02-02T02:22:01;99871.44;;;4.29;72.74
21730;BME280;11027;51.030;13.812;2023-02-02T02:25:15;99872.28;;;4.30;72.84
21730;BME280;11027;51.030;13.812;2023-02-02T02:28:21;99880.09;;;4.33;72.73
21730;BME280;11027;51.030;13.812;2023-02-02T02:33:48;99890.47;;;4.28;72.13
21730;BME280;11027;51.030;13.812;2023-02-02T02:36:32;99875.28;;;4.27;72.19
21730;BME280;11027;51.030;13.812;2023-02-02T02:39:38;99868.88;;;4.28;72.29
21730;BME280;11027;51.030;13.812;2023-02-02T02:42:12;99875.69;;;4.32;72.30
21730;BME280;11027;51.030;13.812;2023-02-02T02:44:39;99870.16;;;4.33;71.94
21730;BME280;11027;51.030;13.812;2023-02-02T02:47:05;99889.03;;;4.33;71.95
21730;BME280;11027;51.030;13.812;2023-02-02T02:49:31;99872.84;;;4.33;71.94
21730;BME280;11027;51.030;13.812;2023-02-02T02:51:56;99870.00;;;4.35;71.62
21730;BME280;11027;51.030;13.812;2023-02-02T02:54:28;99893.00;;;4.39;71.38
21730;BME280;11027;51.030;13.812;2023-02-02T02:57:19;99874.25;;;4.37;70.97
21730;BME280;11027;51.030;13.812;2023-02-02T03:00:11;99895.13;;;4.35;70.47
21730;BME280;11027;51.030;13.812;2023-02-02T03:02:49;99877.97;;;4.36;70.55
21730;BME280;11027;51.030;13.812;2023-02-02T03:05:23;99871.41;;;4.39;70.31
21730;BME280;11027;51.030;13.812;2023-02-02T03:08:19;99876.81;;;4.39;70.05
21730;BME280;11027;51.030;13.812;2023-02-02T03:10:48;99879.50;;;4.39;70.23
21730;BME280;11027;51.030;13.812;2023-02-02T03:13:14;99857.94;;;4.39;70.17
21730;BME280;11027;51.030;13.812;2023-02-02T03:15:41;99888.00;;;4.44;70.39
21730;BME280;11027;51.030;13.812;2023-02-02T03:18:07;99861.72;;;4.46;69.78
21730;BME280;11027;51.030;13.812;2023-02-02T03:20:33;99890.69;;;4.44;69.82
21730;BME280;11027;51.030;13.812;2023-02-02T03:22:58;99873.50;;;4.45;69.86
21730;BME280;11027;51.030;13.812;2023-02-02T03:25:24;99885.28;;;4.44;69.93
21730;BME280;11027;51.030;13.812;2023-02-02T03:27:50;99877.91;;;4.46;69.63
21730;BME280;11027;51.030;13.812;2023-02-02T03:30:15;99888.69;;;4.46;70.05
21730;BME280;11027;51.030;13.812;2023-02-02T03:32:41;99894.09;;;4.46;69.92
21730;BME280;11027;51.030;13.812;2023-02-02T03:35:07;99877.91;;;4.46;69.54
21730;BME280;11027;51.030;13.812;2023-02-02T03:37:33;99900.88;;;4.50;69.65
21730;BME280;11027;51.030;13.812;2023-02-02T03:39:58;99883.00;;;4.49;70.04
21730;BME280;11027;51.030;13.812;2023-02-02T03:42:24;99889.38;;;4.48;69.36
21730;BME280;11027;51.030;13.812;2023-02-02T03:44:49;99889.56;;;4.47;69.46
21730;BME280;11027;51.030;13.812;2023-02-02T03:47:15;99887.84;;;4.46;69.81
21730;BME280;11027;51.030;13.812;2023-02-02T03:49:40;99920.22;;;4.46;69.83
21730;BME280;11027;51.030;13.812;2023-02-02T03:52:05;99899.47;;;4.46;69.48
21730;BME280;11027;51.030;13.812;2023-02-02T03:54:30;99888.69;;;4.46;69.46
21730;BME280;11027;51.030;13.812;2023-02-02T03:56:56;99892.09;;;4.48;69.35
21730;BME280;11027;51.030;13.812;2023-02-02T03:59:21;99899.19;;;4.49;69.22
21730;BME280;11027;51.030;13.812;2023-02-02T04:01:46;99887.25;;;4.52;69.04
21730;BME280;11027;51.030;13.812;2023-02-02T04:04:12;99898.19;;;4.50;69.08
21730;BME280;11027;51.030;13.812;2023-02-02T04:06:37;99919.94;;;4.49;69.13
21730;BME280;11027;51.030;13.812;2023-02-02T04:09:02;99908.28;;;4.48;68.97
21730;BME280;11027;51.030;13.812;2023-02-02T04:11:27;99913.38;;;4.51;69.03
21730;BME280;11027;51.030;13.812;2023-02-02T04:13:53;99932.97;;;4.53;68.74
21730;BME280;11027;51.030;13.812;2023-02-02T04:16:18;99914.09;;;4.53;68.63
21730;BME280;11027;51.030;13.812;2023-02-02T04:18:43;99922.56;;;4.58;68.62
21730;BME280;11027;51.030;13.812;2023-02-02T04:21:08;99941.47;;;4.58;68.47
21730;BME280;11027;51.030;13.812;2023-02-02T04:23:34;99908.56;;;4.55;68.59
21730;BME280;11027;51.030;13.812;2023-02-02T04:26:00;99925.59;;;4.55;68.49
21730;BME280;11027;51.030;13.812;2023-02-02T04:28:26;99928.13;;;4.57;68.40
21730;BME280;11027;51.030;13.812;2023-02-02T04:30:52;99934.97;;;4.51;68.36
21730;BME280;11027;51.030;13.812;2023-02-02T04:33:19;99927.84;;;4.50;68.36
21730;BME280;11027;51.030;13.812;2023-02-02T04:35:45;99927.00;;;4.50;68.39
21730;BME280;11027;51.030;13.812;2023-02-02T04:38:10;99939.66;;;4.49;68.44
21730;BME280;11027;51.030;13.812;2023-02-02T04:40:40;99995.47;;;4.49;68.55
21730;BME280;11027;51.030;13.812;2023-02-02T04:43:06;99945.19;;;4.48;68.40
21730;BME280;11027;51.030;13.812;2023-02-02T04:45:32;99957.53;;;4.50;68.21
21730;BME280;11027;51.030;13.812;2023-02-02T04:47:57;99961.94;;;4.51;68.44
21730;BME280;11027;51.030;13.812;2023-02-02T04:50:23;99945.75;;;4.51;68.24
21730;BME280;11027;51.030;13.812;2023-02-02T04:52:48;99951.88;;;4.53;68.43
21730;BME280;11027;51.030;13.812;2023-02-02T04:55:13;99952.84;;;4.52;68.41
21730;BME280;11027;51.030;13.812;2023-02-02T04:57:38;99934.97;;;4.51;68.60
21730;BME280;11027;51.030;13.812;2023-02-02T05:00:04;99947.63;;;4.51;68.55
21730;BME280;11027;51.030;13.812;2023-02-02T05:02:29;99965.63;;;4.50;68.68
21730;BME280;11027;51.030;13.812;2023-02-02T05:04:55;99945.34;;;4.46;68.77
21730;BME280;11027;51.030;13.812;2023-02-02T05:07:20;99951.44;;;4.48;68.83
21730;BME280;11027;51.030;13.812;2023-02-02T05:09:45;99958.41;;;4.51;68.62
21730;BME280;11027;51.030;13.812;2023-02-02T05:12:10;99959.38;;;4.50;68.48
21730;BME280;11027;51.030;13.812;2023-02-02T05:14:36;99936.97;;;4.49;68.64
21730;BME280;11027;51.030;13.812;2023-02-02T05:17:01;99964.78;;;4.50;68.45
21730;BME280;11027;51.030;13.812;2023-02-02T05:19:26;99971.59;;;4.54;68.36
21730;BME280;11027;51.030;13.812;2023-02-02T05:21:51;99973.31;;;4.55;68.30
21730;BME280;11027;51.030;13.812;2023-02-02T05:24:18;99980.09;;;4.59;68.34
21730;BME280;11027;51.030;13.812;2023-02-02T05:26:44;100012.50;;;4.59;68.11
21730;BME280;11027;51.030;13.812;2023-02-02T05:29:09;100006.22;;;4.58;68.43
21730;BME280;11027;51.030;13.812;2023-02-02T05:31:34;99985.91;;;4.54;68.57
21730;BME280;11027;51.030;13.812;2023-02-02T05:33:59;99995.31;;;4.50;68.90
21730;BME280;11027;51.030;13.812;2023-02-02T05:36:25;99997.72;;;4.53;69.27
21730;BME280;11027;51.030;13.812;2023-02-02T05:38:50;99997.03;;;4.51;69.11
21730;BME280;11027;51.030;13.812;2023-02-02T05:41:15;99997.16;;;4.50;69.07
21730;BME280;11027;51.030;13.812;2023-02-02T05:43:41;99998.72;;;4.52;68.92
21730;BME280;11027;51.030;13.812;2023-02-02T05:46:06;100034.50;;;4.54;68.85
21730;BME280;11027;51.030;13.812;2023-02-02T05:48:31;100006.53;;;4.55;68.67
21730;BME280;11027;51.030;13.812;2023-02-02T05:51:00;100021.44;;;4.59;68.64
21730;BME280;11027;51.030;13.812;2023-02-02T05:53:28;100020.44;;;4.60;68.57
21730;BME280;11027;51.030;13.812;2023-02-02T05:55:54;100022.13;;;4.61;68.37
21730;BME280;11027;51.030;13.812;2023-02-02T05:58:19;100028.53;;;4.60;68.36
21730;BME280;11027;51.030;13.812;2023-02-02T06:00:44;100033.06;;;4.60;68.42
21730;BME280;11027;51.030;13.812;2023-02-02T06:03:09;100025.09;;;4.58;68.39
21730;BME280;11027;51.030;13.812;2023-02-02T06:05:37;100020.72;;;4.57;68.50
21730;BME280;11027;51.030;13.812;2023-02-02T06:08:02;100022.41;;;4.58;68.61
21730;BME280;11027;51.030;13.812;2023-02-02T06:10:27;100028.94;;;4.66;68.59
21730;BME280;11027;51.030;13.812;2023-02-02T06:12:52;100053.34;;;4.64;68.67
21730;BME280;11027;51.030;13.812;2023-02-02T06:15:18;100020.97;;;4.64;68.74
21730;BME280;11027;51.030;13.812;2023-02-02T06:17:43;100054.22;;;4.65;68.98
21730;BME280;11027;51.030;13.812;2023-02-02T06:20:08;100054.22;;;4.65;69.13
21730;BME280;11027;51.030;13.812;2023-02-02T06:22:34;100064.00;;;4.66;69.40
21730;BME280;11027;51.030;13.812;2023-02-02T06:24:59;100079.22;;;4.67;69.88
21730;BME280;11027;51.030;13.812;2023-02-02T06:27:24;100081.22;;;4.65;70.16
21730;BME280;11027;51.030;13.812;2023-02-02T06:29:50;100058.94;;;4.63;70.26
21730;BME280;11027;51.030;13.812;2023-02-02T06:32:15;100063.31;;;4.64;70.39
21730;BME280;11027;51.030;13.812;2023-02-02T06:34:40;100068.00;;;4.61;70.51
21730;BME280;11027;51.030;13.812;2023-02-02T06:37:06;100070.44;;;4.65;70.25
21730;BME280;11027;51.030;13.812;2023-02-02T06:39:31;100066.72;;;4.66;69.92
21730;BME280;11027;51.030;13.812;2023-02-02T06:41:56;100087.16;;;4.68;69.90
21730;BME280;11027;51.030;13.812;2023-02-02T06:44:21;100081.22;;;4.65;69.84
21730;BME280;11027;51.030;13.812;2023-02-02T06:46:47;100077.81;;;4.63;70.25
21730;BME280;11027;51.030;13.812;2023-02-02T06:49:12;100088.59;;;4.63;70.14
21730;BME280;11027;51.030;13.812;2023-02-02T06:51:37;100092.84;;;4.65;70.44
21730;BME280;11027;51.030;13.812;2023-02-02T06:54:03;100096.00;;;4.60;70.52
21730;BME280;11027;51.030;13.812;2023-02-02T06:56:28;100097.25;;;4.56;70.33
21730;BME280;11027;51.030;13.812;2023-02-02T06:58:54;100087.16;;;4.58;70.43
21730;BME280;11027;51.030;13.812;2023-02-02T07:01:19;100085.47;;;4.57;70.17
21730;BME280;11027;51.030;13.812;2023-02-02T07:03:47;100109.06;;;4.55;70.21
21730;BME280;11027;51.030;13.812;2023-02-02T07:06:18;100097.41;;;4.55;70.32
21730;BME280;11027;51.030;13.812;2023-02-02T07:08:44;100109.75;;;4.57;70.78
21730;BME280;11027;51.030;13.812;2023-02-02T07:11:09;100110.59;;;4.58;70.76
21730;BME280;11027;51.030;13.812;2023-02-02T07:13:35;100097.09;;;4.58;71.20
21730;BME280;11027;51.030;13.812;2023-02-02T07:16:02;100109.75;;;4.57;71.24
21730;BME280;11027;51.030;13.812;2023-02-02T07:18:28;100112.19;;;4.60;71.08
21730;BME280;11027;51.030;13.812;2023-02-02T07:20:57;100115.59;;;4.63;71.43
21730;BME280;11027;51.030;13.812;2023-02-02T07:23:23;100116.44;;;4.63;71.50
21730;BME280;11027;51.030;13.812;2023-02-02T07:25:48;100117.00;;;4.67;71.66
21730;BME280;11027;51.030;13.812;2023-02-02T07:28:14;100141.69;;;4.62;71.57
21730;BME280;11027;51.030;13.812;2023-02-02T07:30:39;100122.97;;;4.60;71.70
21730;BME280;11027;51.030;13.812;2023-02-02T07:33:04;100121.25;;;4.59;71.83
21730;BME280;11027;51.030;13.812;2023-02-02T07:35:29;100124.41;;;4.65;71.94
21730;BME280;11027;51.030;13.812;2023-02-02T07:37:55;100145.69;;;4.68;72.02
21730;BME280;11027;51.030;13.812;2023-02-02T07:40:20;100139.56;;;4.66;72.07
21730;BME280;11027;51.030;13.812;2023-02-02T07:42:46;100139.56;;;4.66;72.89
21730;BME280;11027;51.030;13.812;2023-02-02T07:45:12;100147.66;;;4.66;73.42
21730;BME280;11027;51.030;13.812;2023-02-02T07:47:38;100140.84;;;4.61;73.80
21730;BME280;11027;51.030;13.812;2023-02-02T07:50:03;100141.69;;;4.62;73.91
21730;BME280;11027;51.030;13.812;2023-02-02T07:52:28;100147.09;;;4.62;74.06
21730;BME280;11027;51.030;13.812;2023-02-02T07:54:54;100142.72;;;4.61;73.91
21730;BME280;11027;51.030;13.812;2023-02-02T07:57:19;100155.91;;;4.64;73.53
21730;BME280;11027;51.030;13.812;2023-02-02T07:59:44;100149.09;;;4.70;73.71
21730;BME280;11027;51.030;13.812;2023-02-02T08:02:10;100152.50;;;4.72;73.35
21730;BME280;11027;51.030;13.812;2023-02-02T08:04:35;100167.53;;;4.74;73.09
21730;BME280;11027;51.030;13.812;2023-02-02T08:07:00;100160.47;;;4.73;72.43
21730;BME280;11027;51.030;13.812;2023-02-02T08:09:25;100183.91;;;4.73;72.22
21730;BME280;11027;51.030;13.812;2023-02-02T08:11:51;100152.94;;;4.77;72.12
21730;BME280;11027;51.030;13.812;2023-02-02T08:14:16;100170.69;;;4.79;72.29
21730;BME280;11027;51.030;13.812;2023-02-02T08:16:41;100174.66;;;4.85;71.82
21730;BME280;11027;51.030;13.812;2023-02-02T08:19:09;100184.03;;;4.81;71.52
21730;BME280;11027;51.030;13.812;2023-02-02T08:21:34;100181.47;;;4.79;71.63
21730;BME280;11027;51.030;13.812;2023-02-02T08:24:00;100178.66;;;4.81;71.69
21730;BME280;11027;51.030;13.812;2023-02-02T08:26:28;100184.31;;;4.78;71.87
21730;BME280;11027;51.030;13.812;2023-02-02T08:28:56;100189.44;;;4.81;71.78
21730;BME280;11027;51.030;13.812;2023-02-02T08:31:28;100190.28;;;4.81;71.82
21730;BME280;11027;51.030;13.812;2023-02-02T08:33:53;100202.22;;;4.79;71.74
21730;BME280;11027;51.030;13.812;2023-02-02T08:36:21;100193.41;;;4.77;71.95
21730;BME280;11027;51.030;13.812;2023-02-02T08:38:47;100212.31;;;4.77;71.94
21730;BME280;11027;51.030;13.812;2023-02-02T08:41:15;100202.34;;;4.77;71.72
21730;BME280;11027;51.030;13.812;2023-02-02T08:43:41;100216.44;;;4.81;71.95
21730;BME280;11027;51.030;13.812;2023-02-02T08:46:08;100200.94;;;4.83;71.88
21730;BME280;11027;51.030;13.812;2023-02-02T08:48:34;100205.06;;;4.87;71.97
21730;BME280;11027;51.030;13.812;2023-02-02T08:51:00;100207.91;;;4.86;71.96
21730;BME280;11027;51.030;13.812;2023-02-02T08:53:26;100220.38;;;4.87;71.83
21730;BME280;11027;51.030;13.812;2023-02-02T08:56:03;100215.28;;;4.84;71.83
21730;BME280;11027;51.030;13.812;2023-02-02T08:58:30;100216.13;;;4.84;71.96
21730;BME280;11027;51.030;13.812;2023-02-02T09:01:31;100234.03;;;4.85;72.72
21730;BME280;11027;51.030;13.812;2023-02-02T09:04:05;100236.59;;;4.77;73.44
21730;BME280;11027;51.030;13.812;2023-02-02T09:06:33;100231.22;;;4.77;74.04
21730;BME280;11027;51.030;13.812;2023-02-02T09:08:59;100249.38;;;4.75;74.01
21730;BME280;11027;51.030;13.812;2023-02-02T09:11:24;100242.97;;;4.76;74.20
21730;BME280;11027;51.030;13.812;2023-02-02T09:13:54;100249.38;;;4.75;74.05
21730;BME280;11027;51.030;13.812;2023-02-02T09:16:20;100239.56;;;4.74;74.04
21730;BME280;11027;51.030;13.812;2023-02-02T09:18:45;100249.38;;;4.75;74.38
21730;BME280;11027;51.030;13.812;2023-02-02T09:21:13;100257.19;;;4.78;74.33
21730;BME280;11027;51.030;13.812;2023-02-02T09:23:40;100245.25;;;4.80;74.44
21730;BME280;11027;51.030;13.812;2023-02-02T09:28:40;100248.25;;;4.87;74.59
21730;BME280;11027;51.030;13.812;2023-02-02T09:31:06;100250.97;;;4.97;74.56
21730;BME280;11027;51.030;13.812;2023-02-02T09:33:31;100253.09;;;4.93;74.43
21730;BME280;11027;51.030;13.812;2023-02-02T09:36:06;100261.03;;;4.85;74.94
21730;BME280;11027;51.030;13.812;2023-02-02T09:38:31;100259.88;;;4.78;75.58
21730;BME280;11027;51.030;13.812;2023-02-02T09:40:58;100259.88;;;4.78;76.08
21730;BME280;11027;51.030;13.812;2023-02-02T09:49:32;100278.38;;;4.73;76.69
21730;BME280;11027;51.030;13.812;2023-02-02T09:51:41;100278.06;;;4.76;76.74
21730;BME280;11027;51.030;13.812;2023-02-02T09:54:17;100280.78;;;4.76;77.03
21730;BME280;11027;51.030;13.812;2023-02-02T09:56:47;100287.72;;;4.78;77.35
21730;BME280;11027;51.030;13.812;2023-02-02T09:59:21;100279.50;;;4.80;77.64
21730;BME280;11027;51.030;13.812;2023-02-02T10:01:52;100280.22;;;4.82;77.84
21730;BME280;11027;51.030;13.812;2023-02-02T10:04:35;100285.47;;;4.84;77.82
21730;BME280;11027;51.030;13.812;2023-02-02T10:07:12;100291.72;;;4.84;77.95
21730;BME280;11027;51.030;13.812;2023-02-02T10:10:02;100294.88;;;4.89;77.90
21730;BME280;11027;51.030;13.812;2023-02-02T10:12:41;100292.00;;;4.91;77.90
21730;BME280;11027;51.030;13.812;2023-02-02T10:15:28;100289.03;;;4.94;77.90
21730;BME280;11027;51.030;13.812;2023-02-02T10:18:14;100303.09;;;4.97;77.63
21730;BME280;11027;51.030;13.812;2023-02-02T10:20:54;100296.28;;;4.93;77.01
21730;BME280;11027;51.030;13.812;2023-02-02T10:23:25;100305.38;;;4.92;76.69
21730;BME280;11027;51.030;13.812;2023-02-02T10:26:04;100297.56;;;4.89;76.85
21730;BME280;11027;51.030;13.812;2023-02-02T10:28:42;100299.69;;;4.95;77.00
21730;BME280;11027;51.030;13.812;2023-02-02T10:31:17;100292.00;;;5.00;77.05
21730;BME280;11027;51.030;13.812;2023-02-02T10:33:50;100307.94;;;5.04;76.96
21730;BME280;11027;51.030;13.812;2023-02-02T10:36:30;100309.09;;;5.01;77.86
21730;BME280;11027;51.030;13.812;2023-02-02T10:39:15;100306.53;;;4.99;78.51
21730;BME280;11027;51.030;13.812;2023-02-02T10:42:13;100307.50;;;4.98;78.85
21730;BME280;11027;51.030;13.812;2023-02-02T10:44:49;100304.78;;;4.89;79.14
21730;BME280;11027;51.030;13.812;2023-02-02T10:47:24;100305.06;;;4.76;79.98
21730;BME280;11027;51.030;13.812;2023-02-02T10:50:18;100305.19;;;4.74;80.62
21730;BME280;11027;51.030;13.812;2023-02-02T10:52:51;100311.88;;;4.80;80.86
21730;BME280;11027;51.030;13.812;2023-02-02T10:55:27;100302.81;;;4.81;80.88
21730;BME280;11027;51.030;13.812;2023-02-02T11:03:11;100309.22;;;4.90;81.43
21730;BME280;11027;51.030;13.812;2023-02-02T11:05:37;100317.88;;;4.93;81.33
21730;BME280;11027;51.030;13.812;2023-02-02T11:08:27;100313.88;;;4.88;81.43
21730;BME280;11027;51.030;13.812;2023-02-02T11:10:54;100309.34;;;4.98;81.81
21730;BME280;11027;51.030;13.812;2023-02-02T11:13:29;100317.31;;;5.09;81.57
21730;BME280;11027;51.030;13.812;2023-02-02T11:18:39;100320.16;;;5.08;81.42
21730;BME280;11027;51.030;13.812;2023-02-02T11:21:23;100319.44;;;5.06;81.29
21730;BME280;11027;51.030;13.812;2023-02-02T11:24:04;100321.84;;;5.09;81.05
21730;BME280;11027;51.030;13.812;2023-02-02T11:26:52;100326.16;;;5.11;80.70
21730;BME280;11027;51.030;13.812;2023-02-02T11:29:26;100322.88;;;5.08;80.27
21730;BME280;11027;51.030;13.812;2023-02-02T11:31:53;100327.00;;;5.12;80.54
21730;BME280;11027;51.030;13.812;2023-02-02T11:34:22;100327.56;;;5.25;80.53
21730;BME280;11027;51.030;13.812;2023-02-02T11:37:12;100327.00;;;5.31;80.04
21730;BME280;11027;51.030;13.812;2023-02-02T11:39:40;100346.06;;;5.39;79.66
21730;BME280;11027;51.030;13.812;2023-02-02T11:42:20;100347.75;;;5.40;78.63
21730;BME280;11027;51.030;13.812;2023-02-02T11:44:49;100357.41;;;5.43;78.84
21730;BME280;11027;51.030;13.812;2023-02-02T11:47:21;100341.91;;;5.45;78.87
21730;BME280;11027;51.030;13.812;2023-02-02T11:49:49;100357.56;;;5.41;78.81
21730;BME280;11027;51.030;13.812;2023-02-02T11:52:21;100352.88;;;5.44;78.69
21730;BME280;11027;51.030;13.812;2023-02-02T11:54:56;100360.97;;;5.44;78.52
21730;BME280;11027;51.030;13.812;2023-02-02T11:57:24;100357.41;;;5.43;78.30
21730;BME280;11027;51.030;13.812;2023-02-02T12:00:04;100355.13;;;5.38;78.37
21730;BME280;11027;51.030;13.812;2023-02-02T12:02:31;100353.72;;;5.54;78.79
21730;BME280;11027;51.030;13.812;2023-02-02T12:05:31;100364.53;;;5.54;78.90
21730;BME280;11027;51.030;13.812;2023-02-02T12:07:58;100351.72;;;5.56;79.23
21730;BME280;11027;51.030;13.812;2023-02-02T12:10:27;100336.94;;;5.60;79.62
21730;BME280;11027;51.030;13.812;2023-02-02T12:13:06;100355.28;;;5.66;79.06
21730;BME280;11027;51.030;13.812;2023-02-02T12:15:45;100337.75;;;5.80;78.60
21730;BME280;11027;51.030;13.812;2023-02-02T12:21:21;100338.16;;;5.75;78.51
21730;BME280;11027;51.030;13.812;2023-02-02T12:24:23;100353.53;;;5.85;78.65
21730;BME280;11027;51.030;13.812;2023-02-02T12:27:14;100349.09;;;5.84;78.64
21730;BME280;11027;51.030;13.812;2023-02-02T12:30:02;100350.13;;;5.82;77.69
21730;BME280;11027;51.030;13.812;2023-02-02T12:32:53;100349.41;;;5.80;77.63
21730;BME280;11027;51.030;13.812;2023-02-02T12:43:44;100356.56;;;5.62;78.53
21730;BME280;11027;51.030;13.812;2023-02-02T12:49:29;100358.81;;;5.76;78.25
21730;BME280;11027;51.030;13.812;2023-02-02T12:52:19;100363.63;;;5.82;77.84
21730;BME280;11027;51.030;13.812;2023-02-02T12:58:04;100376.84;;;6.05;76.47
21730;BME280;11027;51.030;13.812;2023-02-02T13:00:48;100381.09;;;6.17;76.10
21730;BME280;11027;51.030;13.812;2023-02-02T13:06:09;100404.03;;;6.04;75.14
21730;BME280;11027;51.030;13.812;2023-02-02T13:11:21;100392.09;;;5.87;75.27
21730;BME280;11027;51.030;13.812;2023-02-02T13:14:07;100388.41;;;5.78;75.58
21730;BME280;11027;51.030;13.812;2023-02-02T13:16:36;100398.06;;;5.80;75.82
21730;BME280;11027;51.030;13.812;2023-02-02T13:19:07;100382.00;;;5.79;75.84
21730;BME280;11027;51.030;13.812;2023-02-02T13:21:36;100396.94;;;5.73;76.52
21730;BME280;11027;51.030;13.812;2023-02-02T13:24:04;100389.13;;;5.70;76.59
21730;BME280;11027;51.030;13.812;2023-02-02T13:26:37;100401.88;;;5.88;77.23
21730;BME280;11027;51.030;13.812;2023-02-02T13:31:40;100395.31;;;6.19;74.72
21730;BME280;11027;51.030;13.812;2023-02-02T13:34:16;100402.56;;;6.29;74.38
21730;BME280;11027;51.030;13.812;2023-02-02T13:36:47;100400.88;;;6.18;73.97
21730;BME280;11027;51.030;13.812;2023-02-02T13:39:41;100408.00;;;6.09;73.94
21730;BME280;11027;51.030;13.812;2023-02-02T13:42:16;100428.25;;;6.05;73.68
21730;BME280;11027;51.030;13.812;2023-02-02T13:44:54;100403.50;;;6.00;73.71
21730;BME280;11027;51.030;13.812;2023-02-02T13:47:29;100419.72;;;6.00;73.82
21730;BME280;11027;51.030;13.812;2023-02-02T13:50:04;100433.53;;;5.97;72.89
21730;BME280;11027;51.030;13.812;2023-02-02T13:55:19;100439.63;;;5.99;72.13
21730;BME280;11027;51.030;13.812;2023-02-02T13:57:52;100459.38;;;5.90;72.09
21730;BME280;11027;51.030;13.812;2023-02-02T14:00:48;100446.44;;;5.84;72.58
21730;BME280;11027;51.030;13.812;2023-02-02T14:03:31;100438.06;;;5.87;72.84